sensor_id;sensor_type;location;lat;lon;timestamp;temperature;humidity
6375;DHT22;35400;45.472;-122.822;2023-02-03T00:01:30;9.70;99.90
6375;DHT22;35400;45.472;-122.822;2023-02-03T00:03:57;9.60;99.90
6375;DHT22;35400;45.472;-122.822;2023-02-03T00:06:24;9.60;99.90
6375;DHT22;35400;45.472;-122.822;2023-02-03T00:08:58;9.60;99.90
6375;DHT22;35400;45.472;-122.822;2023-02-03T00:11:28;9.50;98.60
6375;DHT22;35400;45.472;-122.822;2023-02-03T00:13:55;9.50;97.60
6375;DHT22;35400;45.472;-122.822;2023-02-03T00:16:22;9.40;98.10
6375;DHT22;35400;45.472;-122.822;2023-02-03T00:18:49;9.40;97.90
6375;DHT22;35400;45.472;-122.822;2023-02-03T00:21:16;9.40;98.10
6375;DHT22;35400;45.472;-122.822;2023-02-03T00:23:43;9.40;98.40
6375;DHT22;35400;45.472;-122.822;2023-02-03T00:26:14;9.40;98.70
6375;DHT22;35400;45.472;-122.822;2023-02-03T00:28:43;9.40;98.80
6375;DHT22;35400;45.472;-122.822;2023-02-03T00:31:19;9.40;98.70
6375;DHT22;35400;45.472;-122.822;2023-02-03T00:33:47;9.40;98.70
6375;DHT22;35400;45.472;-122.822;2023-02-03T00:36:13;9.40;98.80
6375;DHT22;35400;45.472;-122.822;2023-02-03T00:38:40;9.30;99.10
6375;DHT22;35400;45.472;-122.822;2023-02-03T00:41:07;9.30;99.20
6375;DHT22;35400;45.472;-122.822;2023-02-03T00:43:34;9.30;99.40
6375;DHT22;35400;45.472;-122.822;2023-02-03T00:46:01;9.20;99.60
6375;DHT22;35400;45.472;-122.822;2023-02-03T00:48:28;9.20;99.50
6375;DHT22;35400;45.472;-122.822;2023-02-03T00:50:55;9.10;99.30
6375;DHT22;35400;45.472;-122.822;2023-02-03T00:53:23;9.10;99.30
6375;DHT22;35400;45.472;-122.822;2023-02-03T00:55:50;9.00;99.70
6375;DHT22;35400;45.472;-122.822;2023-02-03T00:58:17;9.00;99.90
6375;DHT22;35400;45.472;-122.822;2023-02-03T01:00:44;8.90;99.90
6375;DHT22;35400;45.472;-122.822;2023-02-03T01:03:11;8.90;99.90
6375;DHT22;35400;45.472;-122.822;2023-02-03T01:05:39;8.80;99.90
6375;DHT22;35400;45.472;-122.822;2023-02-03T01:08:06;8.70;99.90
6375;DHT22;35400;45.472;-122.822;2023-02-03T01:10:32;8.70;99.90
6375;DHT22;35400;45.472;-122.822;2023-02-03T01:12:59;8.60;99.90
6375;DHT22;35400;45.472;-122.822;2023-02-03T01:15:27;8.50;99.90
6375;DHT22;35400;45.472;-122.822;2023-02-03T01:17:54;8.50;99.90
6375;DHT22;35400;45.472;-122.822;2023-02-03T01:20:21;8.40;99.90
6375;DHT22;35400;45.472;-122.822;2023-02-03T01:22:50;8.40;99.90
6375;DHT22;35400;45.472;-122.822;2023-02-03T01:25:17;8.30;99.90
6375;DHT22;35400;45.472;-122.822;2023-02-03T01:27:43;8.20;99.90
6375;DHT22;35400;45.472;-122.822;2023-02-03T01:30:11;8.10;99.90
6375;DHT22;35400;45.472;-122.822;2023-02-03T01:32:38;8.10;99.90
6375;DHT22;35400;45.472;-122.822;2023-02-03T01:35:05;8.10;99.90
6375;DHT22;35400;45.472;-122.822;2023-02-03T01:37:32;8.00;99.90
6375;DHT22;35400;45.472;-122.822;2023-02-03T01:39:58;7.90;99.90
6375;DHT22;35400;45.472;-122.822;2023-02-03T01:42:26;7.80;99.90
6375;DHT22;35400;45.472;-122.822;2023-02-03T01:44:58;7.80;99.90
6375;DHT22;35400;45.472;-122.822;2023-02-03T01:47:36;7.70;99.90
6375;DHT22;35400;45.472;-122.822;2023-02-03T01:50:29;7.60;99.90
6375;DHT22;35400;45.472;-122.822;2023-02-03T01:53:08;7.60;99.90
6375;DHT22;35400;45.472;-122.822;2023-02-03T01:55:40;7.60;99.90
6375;DHT22;35400;45.472;-122.822;2023-02-03T02:00:39;7.40;99.90
6375;DHT22;35400;45.472;-122.822;2023-02-03T02:03:07;7.40;99.90
6375;DHT22;35400;45.472;-122.822;2023-02-03T02:08:13;7.30;99.90
6375;DHT22;35400;45.472;-122.822;2023-02-03T02:10:40;7.20;99.90
6375;DHT22;35400;45.472;-122.822;2023-02-03T02:13:07;7.20;99.90
6375;DHT22;35400;45.472;-122.822;2023-02-03T02:18:55;7.10;99.90
6375;DHT22;35400;45.472;-122.822;2023-02-03T02:36:38;6.80;99.90
6375;DHT22;35400;45.472;-122.822;2023-02-03T02:42:14;6.70;99.90
6375;DHT22;35400;45.472;-122.822;2023-02-03T02:44:31;6.70;99.90
6375;DHT22;35400;45.472;-122.822;2023-02-03T02:47:04;6.60;99.90
6375;DHT22;35400;45.472;-122.822;2023-02-03T02:49:47;6.60;99.90
6375;DHT22;35400;45.472;-122.822;2023-02-03T02:52:17;6.50;99.90
6375;DHT22;35400;45.472;-122.822;2023-02-03T02:54:48;6.50;99.90
6375;DHT22;35400;45.472;-122.822;2023-02-03T02:57:19;6.50;99.90
6375;DHT22;35400;45.472;-122.822;2023-02-03T02:59:48;6.50;99.90
6375;DHT22;35400;45.472;-122.822;2023-02-03T03:02:15;6.40;99.90
6375;DHT22;35400;45.472;-122.822;2023-02-03T03:04:45;6.40;99.90
6375;DHT22;35400;45.472;-122.822;2023-02-03T03:07:17;6.40;99.90
6375;DHT22;35400;45.472;-122.822;2023-02-03T03:09:51;6.30;99.90
6375;DHT22;35400;45.472;-122.822;2023-02-03T03:12:22;6.30;99.90
6375;DHT22;35400;45.472;-122.822;2023-02-03T03:15:02;6.30;99.90
6375;DHT22;35400;45.472;-122.822;2023-02-03T03:17:33;6.30;99.90
6375;DHT22;35400;45.472;-122.822;2023-02-03T03:20:09;6.20;99.90
6375;DHT22;35400;45.472;-122.822;2023-02-03T03:22:44;6.20;99.90
6375;DHT22;35400;45.472;-122.822;2023-02-03T03:25:20;6.20;99.90
6375;DHT22;35400;45.472;-122.822;2023-02-03T03:27:53;6.10;99.90
6375;DHT22;35400;45.472;-122.822;2023-02-03T03:30:28;6.10;99.90
6375;DHT22;35400;45.472;-122.822;2023-02-03T03:32:58;6.10;99.90
6375;DHT22;35400;45.472;-122.822;2023-02-03T03:35:31;6.10;99.90
6375;DHT22;35400;45.472;-122.822;2023-02-03T03:38:11;6.10;99.90
6375;DHT22;35400;45.472;-122.822;2023-02-03T03:40:50;6.00;99.90
6375;DHT22;35400;45.472;-122.822;2023-02-03T03:43:24;6.00;99.90
6375;DHT22;35400;45.472;-122.822;2023-02-03T03:45:59;6.00;99.90
6375;DHT22;35400;45.472;-122.822;2023-02-03T03:52:00;5.90;99.90
6375;DHT22;35400;45.472;-122.822;2023-02-03T03:54:10;5.90;99.90
6375;DHT22;35400;45.472;-122.822;2023-02-03T03:56:50;5.90;99.90
6375;DHT22;35400;45.472;-122.822;2023-02-03T03:59:21;5.80;99.90
6375;DHT22;35400;45.472;-122.822;2023-02-03T04:01:50;5.80;99.90
6375;DHT22;35400;45.472;-122.822;2023-02-03T04:04:19;5.80;99.90
6375;DHT22;35400;45.472;-122.822;2023-02-03T04:06:46;5.80;99.90
6375;DHT22;35400;45.472;-122.822;2023-02-03T04:09:13;5.70;99.90
6375;DHT22;35400;45.472;-122.822;2023-02-03T04:11:40;5.70;99.90
6375;DHT22;35400;45.472;-122.822;2023-02-03T04:14:26;5.70;99.90
6375;DHT22;35400;45.472;-122.822;2023-02-03T04:16:53;5.70;99.90
6375;DHT22;35400;45.472;-122.822;2023-02-03T04:19:20;5.70;99.90
6375;DHT22;35400;45.472;-122.822;2023-02-03T04:21:47;5.60;99.90
6375;DHT22;35400;45.472;-122.822;2023-02-03T04:24:14;5.60;99.90
6375;DHT22;35400;45.472;-122.822;2023-02-03T04:26:41;5.60;99.90
6375;DHT22;35400;45.472;-122.822;2023-02-03T04:29:08;5.60;99.90
6375;DHT22;35400;45.472;-122.822;2023-02-03T04:31:35;5.60;99.90
6375;DHT22;35400;45.472;-122.822;2023-02-03T04:34:01;5.50;99.90
6375;DHT22;35400;45.472;-122.822;2023-02-03T04:36:28;5.50;99.90
6375;DHT22;35400;45.472;-122.822;2023-02-03T04:38:55;5.50;99.90
6375;DHT22;35400;45.472;-122.822;2023-02-03T04:41:22;5.50;99.90
6375;DHT22;35400;45.472;-122.822;2023-02-03T04:43:49;5.50;99.90
6375;DHT22;35400;45.472;-122.822;2023-02-03T04:46:16;5.40;99.90
6375;DHT22;35400;45.472;-122.822;2023-02-03T04:48:44;5.40;99.90
6375;DHT22;35400;45.472;-122.822;2023-02-03T04:51:11;5.40;99.90
6375;DHT22;35400;45.472;-122.822;2023-02-03T04:53:37;5.40;99.90
6375;DHT22;35400;45.472;-122.822;2023-02-03T04:56:04;5.30;99.90
6375;DHT22;35400;45.472;-122.822;2023-02-03T04:58:31;5.30;99.90
6375;DHT22;35400;45.472;-122.822;2023-02-03T05:01:06;5.30;99.90
6375;DHT22;35400;45.472;-122.822;2023-02-03T05:03:34;5.30;99.90
6375;DHT22;35400;45.472;-122.822;2023-02-03T05:06:00;5.30;99.90
6375;DHT22;35400;45.472;-122.822;2023-02-03T05:08:29;5.30;99.90
6375;DHT22;35400;45.472;-122.822;2023-02-03T05:10:55;5.20;99.90
6375;DHT22;35400;45.472;-122.822;2023-02-03T05:13:22;5.30;99.90
6375;DHT22;35400;45.472;-122.822;2023-02-03T05:15:50;5.20;99.90
6375;DHT22;35400;45.472;-122.822;2023-02-03T05:18:16;5.20;99.90
6375;DHT22;35400;45.472;-122.822;2023-02-03T05:20:43;5.20;99.90
6375;DHT22;35400;45.472;-122.822;2023-02-03T05:23:10;5.20;99.90
6375;DHT22;35400;45.472;-122.822;2023-02-03T05:25:37;5.20;99.90
6375;DHT22;35400;45.472;-122.822;2023-02-03T05:28:04;5.20;99.90
6375;DHT22;35400;45.472;-122.822;2023-02-03T05:30:30;5.20;99.90
6375;DHT22;35400;45.472;-122.822;2023-02-03T05:32:58;5.20;99.90
6375;DHT22;35400;45.472;-122.822;2023-02-03T05:35:24;5.20;99.90
6375;DHT22;35400;45.472;-122.822;2023-02-03T05:37:51;5.20;99.90
6375;DHT22;35400;45.472;-122.822;2023-02-03T05:40:18;5.20;99.90
6375;DHT22;35400;45.472;-122.822;2023-02-03T05:43:07;5.20;99.90
6375;DHT22;35400;45.472;-122.822;2023-02-03T05:45:34;5.10;99.90
6375;DHT22;35400;45.472;-122.822;2023-02-03T05:48:01;5.10;99.90
6375;DHT22;35400;45.472;-122.822;2023-02-03T05:50:29;5.10;99.90
6375;DHT22;35400;45.472;-122.822;2023-02-03T05:53:07;5.10;99.90
6375;DHT22;35400;45.472;-122.822;2023-02-03T05:55:34;5.00;99.90
6375;DHT22;35400;45.472;-122.822;2023-02-03T05:58:01;5.00;99.90
6375;DHT22;35400;45.472;-122.822;2023-02-03T06:00:28;5.00;99.90
6375;DHT22;35400;45.472;-122.822;2023-02-03T06:02:58;5.00;99.90
6375;DHT22;35400;45.472;-122.822;2023-02-03T06:05:25;4.90;99.90
6375;DHT22;35400;45.472;-122.822;2023-02-03T06:07:52;4.90;99.90
6375;DHT22;35400;45.472;-122.822;2023-02-03T06:10:19;4.90;99.90
6375;DHT22;35400;45.472;-122.822;2023-02-03T06:12:47;4.90;99.90
6375;DHT22;35400;45.472;-122.822;2023-02-03T06:15:14;4.90;99.90
6375;DHT22;35400;45.472;-122.822;2023-02-03T06:17:45;4.90;99.90
6375;DHT22;35400;45.472;-122.822;2023-02-03T06:20:15;4.90;99.90
6375;DHT22;35400;45.472;-122.822;2023-02-03T06:22:43;4.90;99.90
6375;DHT22;35400;45.472;-122.822;2023-02-03T06:25:10;4.90;99.90
6375;DHT22;35400;45.472;-122.822;2023-02-03T06:27:39;4.80;99.90
6375;DHT22;35400;45.472;-122.822;2023-02-03T06:30:08;4.80;99.90
6375;DHT22;35400;45.472;-122.822;2023-02-03T06:32:36;4.80;99.90
6375;DHT22;35400;45.472;-122.822;2023-02-03T06:35:03;4.70;99.90
6375;DHT22;35400;45.472;-122.822;2023-02-03T06:37:30;4.60;99.90
6375;DHT22;35400;45.472;-122.822;2023-02-03T06:39:57;4.60;99.90
6375;DHT22;35400;45.472;-122.822;2023-02-03T06:42:24;4.60;99.90
6375;DHT22;35400;45.472;-122.822;2023-02-03T06:44:51;4.60;99.90
6375;DHT22;35400;45.472;-122.822;2023-02-03T06:47:18;4.60;99.90
6375;DHT22;35400;45.472;-122.822;2023-02-03T06:49:46;4.50;99.90
6375;DHT22;35400;45.472;-122.822;2023-02-03T06:52:13;4.50;99.90
6375;DHT22;35400;45.472;-122.822;2023-02-03T06:54:41;4.50;99.90
6375;DHT22;35400;45.472;-122.822;2023-02-03T06:57:08;4.50;99.90
6375;DHT22;35400;45.472;-122.822;2023-02-03T06:59:34;4.40;99.90
6375;DHT22;35400;45.472;-122.822;2023-02-03T07:02:02;4.40;99.90
6375;DHT22;35400;45.472;-122.822;2023-02-03T07:04:29;4.40;99.90
6375;DHT22;35400;45.472;-122.822;2023-02-03T07:06:56;4.30;99.90
6375;DHT22;35400;45.472;-122.822;2023-02-03T07:09:23;4.20;99.90
6375;DHT22;35400;45.472;-122.822;2023-02-03T07:11:53;4.20;99.90
6375;DHT22;35400;45.472;-122.822;2023-02-03T07:14:20;4.20;99.90
6375;DHT22;35400;45.472;-122.822;2023-02-03T07:16:47;4.10;99.90
6375;DHT22;35400;45.472;-122.822;2023-02-03T07:19:13;4.10;99.90
6375;DHT22;35400;45.472;-122.822;2023-02-03T07:21:40;4.00;99.90
6375;DHT22;35400;45.472;-122.822;2023-02-03T07:24:07;4.00;99.90
6375;DHT22;35400;45.472;-122.822;2023-02-03T07:26:34;3.90;99.90
6375;DHT22;35400;45.472;-122.822;2023-02-03T07:29:01;3.90;99.90
6375;DHT22;35400;45.472;-122.822;2023-02-03T07:31:28;3.80;99.90
6375;DHT22;35400;45.472;-122.822;2023-02-03T07:33:55;3.80;99.90
6375;DHT22;35400;45.472;-122.822;2023-02-03T07:36:22;3.80;99.90
6375;DHT22;35400;45.472;-122.822;2023-02-03T07:38:49;3.70;99.90
6375;DHT22;35400;45.472;-122.822;2023-02-03T07:41:16;3.70;99.90
6375;DHT22;35400;45.472;-122.822;2023-02-03T07:43:43;3.70;99.90
6375;DHT22;35400;45.472;-122.822;2023-02-03T07:46:10;3.60;99.90
6375;DHT22;35400;45.472;-122.822;2023-02-03T07:48:37;3.60;99.90
6375;DHT22;35400;45.472;-122.822;2023-02-03T07:51:04;3.60;99.90
6375;DHT22;35400;45.472;-122.822;2023-02-03T07:53:32;3.60;99.90
6375;DHT22;35400;45.472;-122.822;2023-02-03T07:56:03;3.60;99.90
6375;DHT22;35400;45.472;-122.822;2023-02-03T07:58:31;3.50;99.90
6375;DHT22;35400;45.472;-122.822;2023-02-03T08:00:58;3.50;99.90
6375;DHT22;35400;45.472;-122.822;2023-02-03T08:03:25;3.50;99.90
6375;DHT22;35400;45.472;-122.822;2023-02-03T08:05:52;3.50;99.90
6375;DHT22;35400;45.472;-122.822;2023-02-03T08:08:19;3.50;99.90
6375;DHT22;35400;45.472;-122.822;2023-02-03T08:10:46;3.50;99.90
6375;DHT22;35400;45.472;-122.822;2023-02-03T08:13:13;3.40;99.90
6375;DHT22;35400;45.472;-122.822;2023-02-03T08:15:40;3.40;99.90
6375;DHT22;35400;45.472;-122.822;2023-02-03T08:18:07;3.40;99.90
6375;DHT22;35400;45.472;-122.822;2023-02-03T08:20:35;3.30;99.90
6375;DHT22;35400;45.472;-122.822;2023-02-03T08:23:01;3.30;99.90
6375;DHT22;35400;45.472;-122.822;2023-02-03T08:25:28;3.30;99.90
6375;DHT22;35400;45.472;-122.822;2023-02-03T08:27:55;3.30;99.90
6375;DHT22;35400;45.472;-122.822;2023-02-03T08:30:23;3.20;99.90
6375;DHT22;35400;45.472;-122.822;2023-02-03T08:32:50;3.20;99.90
6375;DHT22;35400;45.472;-122.822;2023-02-03T08:35:17;3.20;99.90
6375;DHT22;35400;45.472;-122.822;2023-02-03T08:37:44;3.20;99.90
6375;DHT22;35400;45.472;-122.822;2023-02-03T08:40:11;3.10;99.90
6375;DHT22;35400;45.472;-122.822;2023-02-03T08:42:38;3.10;99.90
6375;DHT22;35400;45.472;-122.822;2023-02-03T08:45:08;3.10;99.90
6375;DHT22;35400;45.472;-122.822;2023-02-03T08:47:35;3.10;99.90
6375;DHT22;35400;45.472;-122.822;2023-02-03T08:50:04;3.10;99.90
6375;DHT22;35400;45.472;-122.822;2023-02-03T08:52:31;3.00;99.90
6375;DHT22;35400;45.472;-122.822;2023-02-03T08:54:58;3.00;99.90
6375;DHT22;35400;45.472;-122.822;2023-02-03T08:57:25;3.00;99.90
6375;DHT22;35400;45.472;-122.822;2023-02-03T08:59:52;3.00;99.90
6375;DHT22;35400;45.472;-122.822;2023-02-03T09:02:19;3.00;99.90
6375;DHT22;35400;45.472;-122.822;2023-02-03T09:04:46;3.00;99.90
6375;DHT22;35400;45.472;-122.822;2023-02-03T09:07:17;3.00;99.90
6375;DHT22;35400;45.472;-122.822;2023-02-03T09:09:44;3.00;99.90
6375;DHT22;35400;45.472;-122.822;2023-02-03T09:12:11;3.00;99.90
6375;DHT22;35400;45.472;-122.822;2023-02-03T09:14:38;3.00;99.90
6375;DHT22;35400;45.472;-122.822;2023-02-03T09:17:09;3.00;99.90
6375;DHT22;35400;45.472;-122.822;2023-02-03T09:19:36;3.00;99.90
6375;DHT22;35400;45.472;-122.822;2023-02-03T09:22:03;3.00;99.90
6375;DHT22;35400;45.472;-122.822;2023-02-03T09:24:30;3.00;99.90
6375;DHT22;35400;45.472;-122.822;2023-02-03T09:26:57;3.00;99.90
6375;DHT22;35400;45.472;-122.822;2023-02-03T09:29:26;3.00;99.90
6375;DHT22;35400;45.472;-122.822;2023-02-03T09:31:53;3.00;99.90
6375;DHT22;35400;45.472;-122.822;2023-02-03T09:34:21;3.00;99.90
6375;DHT22;35400;45.472;-122.822;2023-02-03T09:36:48;3.00;99.90
6375;DHT22;35400;45.472;-122.822;2023-02-03T09:39:16;3.00;99.90
6375;DHT22;35400;45.472;-122.822;2023-02-03T09:44:41;3.00;99.90
6375;DHT22;35400;45.472;-122.822;2023-02-03T09:47:15;3.00;99.90
6375;DHT22;35400;45.472;-122.822;2023-02-03T09:49:51;3.00;99.90
6375;DHT22;35400;45.472;-122.822;2023-02-03T09:52:24;3.00;99.90
6375;DHT22;35400;45.472;-122.822;2023-02-03T09:57:47;3.00;99.90
6375;DHT22;35400;45.472;-122.822;2023-02-03T10:00:21;3.00;99.90
6375;DHT22;35400;45.472;-122.822;2023-02-03T10:03:06;3.00;99.90
6375;DHT22;35400;45.472;-122.822;2023-02-03T10:11:00;2.90;99.90
6375;DHT22;35400;45.472;-122.822;2023-02-03T10:18:54;2.90;99.90
6375;DHT22;35400;45.472;-122.822;2023-02-03T10:23:59;2.90;99.90
6375;DHT22;35400;45.472;-122.822;2023-02-03T10:26:28;2.90;99.90
6375;DHT22;35400;45.472;-122.822;2023-02-03T10:28:57;2.90;99.90
6375;DHT22;35400;45.472;-122.822;2023-02-03T10:31:32;2.90;99.90
6375;DHT22;35400;45.472;-122.822;2023-02-03T10:34:15;2.90;99.90
6375;DHT22;35400;45.472;-122.822;2023-02-03T10:36:56;2.90;99.90
6375;DHT22;35400;45.472;-122.822;2023-02-03T10:41:59;2.90;99.90
6375;DHT22;35400;45.472;-122.822;2023-02-03T10:44:45;2.90;99.90
6375;DHT22;35400;45.472;-122.822;2023-02-03T10:48:00;2.90;99.90
6375;DHT22;35400;45.472;-122.822;2023-02-03T10:50:25;2.80;99.90
6375;DHT22;35400;45.472;-122.822;2023-02-03T10:55:45;2.80;99.90
6375;DHT22;35400;45.472;-122.822;2023-02-03T10:58:26;2.80;99.90
6375;DHT22;35400;45.472;-122.822;2023-02-03T11:01:05;2.80;99.90
6375;DHT22;35400;45.472;-122.822;2023-02-03T11:03:33;2.80;99.90
6375;DHT22;35400;45.472;-122.822;2023-02-03T11:06:14;2.80;99.90
6375;DHT22;35400;45.472;-122.822;2023-02-03T11:08:46;2.80;99.90
6375;DHT22;35400;45.472;-122.822;2023-02-03T11:11:25;2.80;99.90
6375;DHT22;35400;45.472;-122.822;2023-02-03T11:14:15;2.90;99.90
6375;DHT22;35400;45.472;-122.822;2023-02-03T11:16:43;2.90;99.90
6375;DHT22;35400;45.472;-122.822;2023-02-03T11:19:20;2.90;99.90
6375;DHT22;35400;45.472;-122.822;2023-02-03T11:21:52;2.90;99.90
6375;DHT22;35400;45.472;-122.822;2023-02-03T11:24:36;2.90;99.90
6375;DHT22;35400;45.472;-122.822;2023-02-03T11:27:13;2.90;99.90
6375;DHT22;35400;45.472;-122.822;2023-02-03T11:29:50;2.90;99.90
6375;DHT22;35400;45.472;-122.822;2023-02-03T11:32:21;2.90;99.90
6375;DHT22;35400;45.472;-122.822;2023-02-03T11:35:17;2.90;99.90
6375;DHT22;35400;45.472;-122.822;2023-02-03T11:37:48;2.90;99.90
6375;DHT22;35400;45.472;-122.822;2023-02-03T11:42:59;2.90;99.90
6375;DHT22;35400;45.472;-122.822;2023-02-03T11:45:36;2.80;99.90
6375;DHT22;35400;45.472;-122.822;2023-02-03T11:48:14;2.80;99.90
6375;DHT22;35400;45.472;-122.822;2023-02-03T11:51:23;2.80;99.90
6375;DHT22;35400;45.472;-122.822;2023-02-03T11:56:53;2.80;99.90
6375;DHT22;35400;45.472;-122.822;2023-02-03T12:05:11;2.80;99.90
6375;DHT22;35400;45.472;-122.822;2023-02-03T12:08:03;2.80;99.90
6375;DHT22;35400;45.472;-122.822;2023-02-03T12:10:56;2.80;99.90
6375;DHT22;35400;45.472;-122.822;2023-02-03T12:13:58;2.80;99.90
6375;DHT22;35400;45.472;-122.822;2023-02-03T12:22:24;2.80;99.90
6375;DHT22;35400;45.472;-122.822;2023-02-03T12:28:32;2.80;99.90
6375;DHT22;35400;45.472;-122.822;2023-02-03T12:31:17;2.80;99.90
6375;DHT22;35400;45.472;-122.822;2023-02-03T12:34:14;2.80;99.90
6375;DHT22;35400;45.472;-122.822;2023-02-03T12:37:04;2.80;99.90
6375;DHT22;35400;45.472;-122.822;2023-02-03T12:39:45;2.90;99.90
6375;DHT22;35400;45.472;-122.822;2023-02-03T12:42:19;2.80;99.90
6375;DHT22;35400;45.472;-122.822;2023-02-03T12:44:56;2.80;99.90
6375;DHT22;35400;45.472;-122.822;2023-02-03T12:47:44;2.80;99.90
6375;DHT22;35400;45.472;-122.822;2023-02-03T12:50:34;2.80;99.90
6375;DHT22;35400;45.472;-122.822;2023-02-03T12:55:43;2.80;99.90
6375;DHT22;35400;45.472;-122.822;2023-02-03T12:58:36;2.80;99.90
6375;DHT22;35400;45.472;-122.822;2023-02-03T13:01:21;2.80;99.90
6375;DHT22;35400;45.472;-122.822;2023-02-03T13:06:52;2.80;99.90
6375;DHT22;35400;45.472;-122.822;2023-02-03T13:17:57;2.80;99.90
6375;DHT22;35400;45.472;-122.822;2023-02-03T13:20:29;2.80;99.90
6375;DHT22;35400;45.472;-122.822;2023-02-03T13:23:02;2.80;99.90
6375;DHT22;35400;45.472;-122.822;2023-02-03T13:42:27;3.00;99.90
6375;DHT22;35400;45.472;-122.822;2023-02-03T13:45:27;3.00;99.90
6375;DHT22;35400;45.472;-122.822;2023-02-03T13:48:00;3.10;99.90
6375;DHT22;35400;45.472;-122.822;2023-02-03T13:50:33;3.10;99.90
6375;DHT22;35400;45.472;-122.822;2023-02-03T13:53:19;3.10;99.90
6375;DHT22;35400;45.472;-122.822;2023-02-03T13:55:58;3.10;99.90
6375;DHT22;35400;45.472;-122.822;2023-02-03T13:58:30;3.10;99.90
6375;DHT22;35400;45.472;-122.822;2023-02-03T14:01:02;3.20;99.90
6375;DHT22;35400;45.472;-122.822;2023-02-03T14:05:57;3.20;99.90
6375;DHT22;35400;45.472;-122.822;2023-02-03T14:16:50;3.20;99.90
6375;DHT22;35400;45.472;-122.822;2023-02-03T14:24:35;3.20;99.90
6375;DHT22;35400;45.472;-122.822;2023-02-03T14:27:21;3.10;99.90
6375;DHT22;35400;45.472;-122.822;2023-02-03T14:30:10;3.10;99.90
6375;DHT22;35400;45.472;-122.822;2023-02-03T14:33:01;3.10;99.90
6375;DHT22;35400;45.472;-122.822;2023-02-03T14:35:33;3.10;99.90
6375;DHT22;35400;45.472;-122.822;2023-02-03T14:38:08;3.10;99.90
6375;DHT22;35400;45.472;-122.822;2023-02-03T14:40:56;3.10;99.90
6375;DHT22;35400;45.472;-122.822;2023-02-03T14:55:02;3.00;99.90
6375;DHT22;35400;45.472;-122.822;2023-02-03T15:05:46;3.00;99.90
6375;DHT22;35400;45.472;-122.822;2023-02-03T15:11:29;2.90;99.90
6375;DHT22;35400;45.472;-122.822;2023-02-03T15:14:13;2.90;99.90
6375;DHT22;35400;45.472;-122.822;2023-02-03T15:16:42;2.90;99.90
6375;DHT22;35400;45.472;-122.822;2023-02-03T15:19:18;2.90;99.90
6375;DHT22;35400;45.472;-122.822;2023-02-03T15:21:45;2.90;99.90
6375;DHT22;35400;45.472;-122.822;2023-02-03T15:24:15;3.00;99.90
6375;DHT22;35400;45.472;-122.822;2023-02-03T15:26:46;3.00;99.90
6375;DHT22;35400;45.472;-122.822;2023-02-03T15:29:25;3.00;99.90
6375;DHT22;35400;45.472;-122.822;2023-02-03T15:32:07;3.00;99.90
6375;DHT22;35400;45.472;-122.822;2023-02-03T15:34:42;3.00;99.90
6375;DHT22;35400;45.472;-122.822;2023-02-03T15:37:30;3.00;99.90
6375;DHT22;35400;45.472;-122.822;2023-02-03T15:40:07;3.00;99.90
6375;DHT22;35400;45.472;-122.822;2023-02-03T15:48:37;3.00;99.90
6375;DHT22;35400;45.472;-122.822;2023-02-03T15:51:14;3.10;99.90
6375;DHT22;35400;45.472;-122.822;2023-02-03T15:53:53;3.10;99.90
6375;DHT22;35400;45.472;-122.822;2023-02-03T15:56:45;3.10;99.90
6375;DHT22;35400;45.472;-122.822;2023-02-03T15:59:38;3.10;99.90
6375;DHT22;35400;45.472;-122.822;2023-02-03T16:02:15;3.10;99.90
6375;DHT22;35400;45.472;-122.822;2023-02-03T16:04:43;3.10;99.90
6375;DHT22;35400;45.472;-122.822;2023-02-03T16:07:26;3.10;99.90
6375;DHT22;35400;45.472;-122.822;2023-02-03T16:09:58;3.20;99.90
6375;DHT22;35400;45.472;-122.822;2023-02-03T16:12:30;3.20;99.90
6375;DHT22;35400;45.472;-122.822;2023-02-03T16:14:59;3.20;99.90
6375;DHT22;35400;45.472;-122.822;2023-02-03T16:17:33;3.20;99.90
6375;DHT22;35400;45.472;-122.822;2023-02-03T16:22:45;3.30;99.90
6375;DHT22;35400;45.472;-122.822;2023-02-03T16:25:26;3.30;99.90
6375;DHT22;35400;45.472;-122.822;2023-02-03T16:31:07;3.40;99.90
6375;DHT22;35400;45.472;-122.822;2023-02-03T16:33:54;3.40;99.90
6375;DHT22;35400;45.472;-122.822;2023-02-03T16:36:41;3.50;99.90
6375;DHT22;35400;45.472;-122.822;2023-02-03T16:39:27;3.50;99.90
6375;DHT22;35400;45.472;-122.822;2023-02-03T16:42:18;3.60;99.90
6375;DHT22;35400;45.472;-122.822;2023-02-03T16:45:14;3.60;99.90
6375;DHT22;35400;45.472;-122.822;2023-02-03T16:48:00;3.60;99.90
6375;DHT22;35400;45.472;-122.822;2023-02-03T16:50:45;3.70;99.90
6375;DHT22;35400;45.472;-122.822;2023-02-03T16:53:19;3.70;99.90
6375;DHT22;35400;45.472;-122.822;2023-02-03T16:55:47;3.70;99.90
6375;DHT22;35400;45.472;-122.822;2023-02-03T16:58:15;3.80;99.90
6375;DHT22;35400;45.472;-122.822;2023-02-03T17:00:45;3.80;99.90
6375;DHT22;35400;45.472;-122.822;2023-02-03T17:03:15;3.80;99.90
6375;DHT22;35400;45.472;-122.822;2023-02-03T17:05:44;3.90;99.90
6375;DHT22;35400;45.472;-122.822;2023-02-03T17:08:14;3.90;99.90
6375;DHT22;35400;45.472;-122.822;2023-02-03T17:10:43;3.90;99.90
6375;DHT22;35400;45.472;-122.822;2023-02-03T17:13:10;3.90;99.90
6375;DHT22;35400;45.472;-122.822;2023-02-03T17:15:42;3.90;99.90
6375;DHT22;35400;45.472;-122.822;2023-02-03T17:18:10;4.00;99.90
6375;DHT22;35400;45.472;-122.822;2023-02-03T17:20:36;4.00;99.90
6375;DHT22;35400;45.472;-122.822;2023-02-03T17:23:04;4.00;99.90
6375;DHT22;35400;45.472;-122.822;2023-02-03T17:25:32;4.00;99.90
6375;DHT22;35400;45.472;-122.822;2023-02-03T17:28:06;4.00;99.90
6375;DHT22;35400;45.472;-122.822;2023-02-03T17:30:33;4.00;99.90
6375;DHT22;35400;45.472;-122.822;2023-02-03T17:33:06;4.00;99.90
6375;DHT22;35400;45.472;-122.822;2023-02-03T17:35:43;4.00;99.90
6375;DHT22;35400;45.472;-122.822;2023-02-03T17:38:11;4.10;99.90
6375;DHT22;35400;45.472;-122.822;2023-02-03T17:40:42;4.10;99.90
6375;DHT22;35400;45.472;-122.822;2023-02-03T17:43:09;4.10;99.90
6375;DHT22;35400;45.472;-122.822;2023-02-03T17:45:41;4.10;99.90
6375;DHT22;35400;45.472;-122.822;2023-02-03T17:48:08;4.20;99.90
6375;DHT22;35400;45.472;-122.822;2023-02-03T17:50:35;4.20;99.90
6375;DHT22;35400;45.472;-122.822;2023-02-03T17:53:02;4.20;99.90
6375;DHT22;35400;45.472;-122.822;2023-02-03T17:55:30;4.30;99.90
6375;DHT22;35400;45.472;-122.822;2023-02-03T17:57:57;4.40;99.90
6375;DHT22;35400;45.472;-122.822;2023-02-03T18:00:24;4.50;99.90
6375;DHT22;35400;45.472;-122.822;2023-02-03T18:02:51;4.60;99.90
6375;DHT22;35400;45.472;-122.822;2023-02-03T18:05:18;4.70;99.90
6375;DHT22;35400;45.472;-122.822;2023-02-03T18:07:45;4.80;99.90
6375;DHT22;35400;45.472;-122.822;2023-02-03T18:10:12;4.90;99.90
6375;DHT22;35400;45.472;-122.822;2023-02-03T18:12:38;5.00;99.90
6375;DHT22;35400;45.472;-122.822;2023-02-03T18:15:06;5.10;99.90
6375;DHT22;35400;45.472;-122.822;2023-02-03T18:17:33;5.10;99.90
6375;DHT22;35400;45.472;-122.822;2023-02-03T18:20:00;5.20;99.90